sensor_id;sensor_type;location;lat;lon;timestamp;temperature;humidity
20400;DHT22;10359;53.596;22.520;2024-02-14T00:01:52;3.70;1.00
20400;DHT22;10359;53.596;22.520;2024-02-14T00:04:21;3.80;1.00
20400;DHT22;10359;53.596;22.520;2024-02-14T00:06:50;3.80;1.00
20400;DHT22;10359;53.596;22.520;2024-02-14T00:09:21;3.80;1.00
20400;DHT22;10359;53.596;22.520;2024-02-14T00:11:50;3.80;1.00
20400;DHT22;10359;53.596;22.520;2024-02-14T00:14:21;3.80;1.00
20400;DHT22;10359;53.596;22.520;2024-02-14T00:16:50;3.80;1.00
20400;DHT22;10359;53.596;22.520;2024-02-14T00:19:20;3.90;1.00
20400;DHT22;10359;53.596;22.520;2024-02-14T00:21:49;3.90;1.00
20400;DHT22;10359;53.596;22.520;2024-02-14T00:24:19;3.90;1.00
20400;DHT22;10359;53.596;22.520;2024-02-14T00:26:48;3.80;1.00
20400;DHT22;10359;53.596;22.520;2024-02-14T00:29:18;3.90;1.00
20400;DHT22;10359;53.596;22.520;2024-02-14T00:31:49;3.90;1.00
20400;DHT22;10359;53.596;22.520;2024-02-14T00:34:18;3.80;1.00
20400;DHT22;10359;53.596;22.520;2024-02-14T00:36:47;3.80;1.00
20400;DHT22;10359;53.596;22.520;2024-02-14T00:39:16;3.80;1.00
20400;DHT22;10359;53.596;22.520;2024-02-14T00:41:47;3.80;1.00
20400;DHT22;10359;53.596;22.520;2024-02-14T00:44:16;3.80;1.00
20400;DHT22;10359;53.596;22.520;2024-02-14T00:46:48;3.80;1.00
20400;DHT22;10359;53.596;22.520;2024-02-14T00:49:17;3.80;1.00
20400;DHT22;10359;53.596;22.520;2024-02-14T00:51:47;3.60;1.00
20400;DHT22;10359;53.596;22.520;2024-02-14T00:54:17;3.60;1.00
20400;DHT22;10359;53.596;22.520;2024-02-14T00:56:46;3.60;1.00
20400;DHT22;10359;53.596;22.520;2024-02-14T00:59:15;3.70;1.00
20400;DHT22;10359;53.596;22.520;2024-02-14T01:01:45;3.70;1.00
20400;DHT22;10359;53.596;22.520;2024-02-14T01:04:16;3.70;1.00
20400;DHT22;10359;53.596;22.520;2024-02-14T01:06:45;3.70;1.00
20400;DHT22;10359;53.596;22.520;2024-02-14T01:09:16;3.70;1.00
20400;DHT22;10359;53.596;22.520;2024-02-14T01:11:45;3.80;1.00
20400;DHT22;10359;53.596;22.520;2024-02-14T01:14:16;3.70;1.00
20400;DHT22;10359;53.596;22.520;2024-02-14T01:16:46;3.70;1.00
20400;DHT22;10359;53.596;22.520;2024-02-14T01:19:17;3.70;1.00
20400;DHT22;10359;53.596;22.520;2024-02-14T01:21:48;3.70;1.00
20400;DHT22;10359;53.596;22.520;2024-02-14T01:24:17;3.70;1.00
20400;DHT22;10359;53.596;22.520;2024-02-14T01:26:46;3.80;1.00
20400;DHT22;10359;53.596;22.520;2024-02-14T01:29:17;3.80;1.00
20400;DHT22;10359;53.596;22.520;2024-02-14T01:31:47;3.90;1.00
20400;DHT22;10359;53.596;22.520;2024-02-14T01:34:18;3.80;1.00
20400;DHT22;10359;53.596;22.520;2024-02-14T01:36:48;3.80;1.00
20400;DHT22;10359;53.596;22.520;2024-02-14T01:39:17;3.70;1.00
20400;DHT22;10359;53.596;22.520;2024-02-14T01:41:47;3.60;1.00
20400;DHT22;10359;53.596;22.520;2024-02-14T01:44:16;3.60;1.00
20400;DHT22;10359;53.596;22.520;2024-02-14T01:46:45;3.40;1.00
20400;DHT22;10359;53.596;22.520;2024-02-14T01:49:16;3.40;1.00
20400;DHT22;10359;53.596;22.520;2024-02-14T01:51:46;3.40;1.00
20400;DHT22;10359;53.596;22.520;2024-02-14T01:54:16;3.30;1.00
20400;DHT22;10359;53.596;22.520;2024-02-14T01:56:46;3.30;1.00
20400;DHT22;10359;53.596;22.520;2024-02-14T01:59:15;3.20;1.00
20400;DHT22;10359;53.596;22.520;2024-02-14T02:01:46;3.20;1.00
20400;DHT22;10359;53.596;22.520;2024-02-14T02:04:15;3.10;1.00
20400;DHT22;10359;53.596;22.520;2024-02-14T02:06:47;3.10;1.00
20400;DHT22;10359;53.596;22.520;2024-02-14T02:09:17;3.20;1.00
20400;DHT22;10359;53.596;22.520;2024-02-14T02:11:46;3.20;1.00
20400;DHT22;10359;53.596;22.520;2024-02-14T02:14:17;3.10;1.00
20400;DHT22;10359;53.596;22.520;2024-02-14T02:16:46;3.20;1.00
20400;DHT22;10359;53.596;22.520;2024-02-14T02:19:16;3.10;1.00
20400;DHT22;10359;53.596;22.520;2024-02-14T02:21:48;3.00;1.00
20400;DHT22;10359;53.596;22.520;2024-02-14T02:24:18;2.90;1.00
20400;DHT22;10359;53.596;22.520;2024-02-14T02:26:48;2.80;1.00
20400;DHT22;10359;53.596;22.520;2024-02-14T02:29:17;2.80;1.00
20400;DHT22;10359;53.596;22.520;2024-02-14T02:31:47;2.70;1.00
20400;DHT22;10359;53.596;22.520;2024-02-14T02:34:16;2.50;1.00
20400;DHT22;10359;53.596;22.520;2024-02-14T02:36:46;2.40;1.00
20400;DHT22;10359;53.596;22.520;2024-02-14T02:39:19;2.20;1.00
20400;DHT22;10359;53.596;22.520;2024-02-14T02:41:48;2.10;1.00
20400;DHT22;10359;53.596;22.520;2024-02-14T02:44:18;2.00;1.00
20400;DHT22;10359;53.596;22.520;2024-02-14T02:46:47;1.90;1.00
20400;DHT22;10359;53.596;22.520;2024-02-14T02:49:16;1.80;1.00
20400;DHT22;10359;53.596;22.520;2024-02-14T02:51:45;1.70;1.00
20400;DHT22;10359;53.596;22.520;2024-02-14T02:54:15;1.60;1.00
20400;DHT22;10359;53.596;22.520;2024-02-14T02:56:46;1.20;1.00
20400;DHT22;10359;53.596;22.520;2024-02-14T02:59:15;1.60;1.00
20400;DHT22;10359;53.596;22.520;2024-02-14T03:01:45;1.80;1.00
20400;DHT22;10359;53.596;22.520;2024-02-14T03:04:14;1.90;1.00
20400;DHT22;10359;53.596;22.520;2024-02-14T03:06:44;1.80;1.00
20400;DHT22;10359;53.596;22.520;2024-02-14T03:09:14;1.90;1.00
20400;DHT22;10359;53.596;22.520;2024-02-14T03:11:47;1.90;1.00
20400;DHT22;10359;53.596;22.520;2024-02-14T03:14:17;2.00;1.00
20400;DHT22;10359;53.596;22.520;2024-02-14T03:16:46;1.70;1.00
20400;DHT22;10359;53.596;22.520;2024-02-14T03:19:15;2.20;1.00
20400;DHT22;10359;53.596;22.520;2024-02-14T03:21:45;2.30;1.00
20400;DHT22;10359;53.596;22.520;2024-02-14T03:24:14;2.50;1.00
20400;DHT22;10359;53.596;22.520;2024-02-14T03:26:44;2.40;1.00
20400;DHT22;10359;53.596;22.520;2024-02-14T03:29:17;2.40;1.00
20400;DHT22;10359;53.596;22.520;2024-02-14T03:31:50;2.50;1.00
20400;DHT22;10359;53.596;22.520;2024-02-14T03:34:28;2.60;1.00
20400;DHT22;10359;53.596;22.520;2024-02-14T03:37:00;2.60;1.00
20400;DHT22;10359;53.596;22.520;2024-02-14T03:39:30;2.70;1.00
20400;DHT22;10359;53.596;22.520;2024-02-14T03:42:00;2.60;1.00
20400;DHT22;10359;53.596;22.520;2024-02-14T03:44:36;2.60;1.00
20400;DHT22;10359;53.596;22.520;2024-02-14T03:47:06;2.60;1.00
20400;DHT22;10359;53.596;22.520;2024-02-14T03:49:35;2.70;1.00
20400;DHT22;10359;53.596;22.520;2024-02-14T03:52:05;2.70;1.00
20400;DHT22;10359;53.596;22.520;2024-02-14T03:54:37;2.80;1.00
20400;DHT22;10359;53.596;22.520;2024-02-14T03:57:07;2.80;1.00
20400;DHT22;10359;53.596;22.520;2024-02-14T03:59:38;2.80;1.00
20400;DHT22;10359;53.596;22.520;2024-02-14T04:02:07;2.80;1.00
20400;DHT22;10359;53.596;22.520;2024-02-14T04:04:37;2.80;1.00
20400;DHT22;10359;53.596;22.520;2024-02-14T04:07:07;2.60;1.00
20400;DHT22;10359;53.596;22.520;2024-02-14T04:09:37;2.40;1.00
20400;DHT22;10359;53.596;22.520;2024-02-14T04:12:07;1.90;1.00
20400;DHT22;10359;53.596;22.520;2024-02-14T04:14:39;2.30;1.00
20400;DHT22;10359;53.596;22.520;2024-02-14T04:17:09;1.90;1.00
20400;DHT22;10359;53.596;22.520;2024-02-14T04:19:39;1.80;1.00
20400;DHT22;10359;53.596;22.520;2024-02-14T04:22:08;1.80;1.00
20400;DHT22;10359;53.596;22.520;2024-02-14T04:24:38;1.60;1.00
20400;DHT22;10359;53.596;22.520;2024-02-14T04:27:07;1.60;1.00
20400;DHT22;10359;53.596;22.520;2024-02-14T04:29:36;1.60;1.00
20400;DHT22;10359;53.596;22.520;2024-02-14T04:32:07;1.60;1.00
20400;DHT22;10359;53.596;22.520;2024-02-14T04:34:37;1.40;1.00
20400;DHT22;10359;53.596;22.520;2024-02-14T04:37:08;1.30;1.00
20400;DHT22;10359;53.596;22.520;2024-02-14T04:39:40;1.00;1.00
20400;DHT22;10359;53.596;22.520;2024-02-14T04:42:09;1.40;1.00
20400;DHT22;10359;53.596;22.520;2024-02-14T04:44:39;1.10;1.00
20400;DHT22;10359;53.596;22.520;2024-02-14T04:47:10;1.10;1.00
20400;DHT22;10359;53.596;22.520;2024-02-14T04:49:39;1.20;1.00
20400;DHT22;10359;53.596;22.520;2024-02-14T04:52:08;1.20;1.00
20400;DHT22;10359;53.596;22.520;2024-02-14T04:54:38;1.00;1.00
20400;DHT22;10359;53.596;22.520;2024-02-14T04:57:07;1.20;1.00
20400;DHT22;10359;53.596;22.520;2024-02-14T04:59:36;0.90;1.00
20400;DHT22;10359;53.596;22.520;2024-02-14T05:02:06;0.90;1.00
20400;DHT22;10359;53.596;22.520;2024-02-14T05:04:37;1.10;1.00
20400;DHT22;10359;53.596;22.520;2024-02-14T05:07:07;1.00;1.00
20400;DHT22;10359;53.596;22.520;2024-02-14T05:09:36;1.00;11.70
20400;DHT22;10359;53.596;22.520;2024-02-14T05:12:06;0.80;11.40
20400;DHT22;10359;53.596;22.520;2024-02-14T05:14:38;1.30;11.80
20400;DHT22;10359;53.596;22.520;2024-02-14T05:17:08;1.40;1.00
20400;DHT22;10359;53.596;22.520;2024-02-14T05:19:41;1.40;1.00
20400;DHT22;10359;53.596;22.520;2024-02-14T05:22:11;1.00;1.00
20400;DHT22;10359;53.596;22.520;2024-02-14T05:24:41;1.30;1.00
20400;DHT22;10359;53.596;22.520;2024-02-14T05:27:10;1.30;1.00
20400;DHT22;10359;53.596;22.520;2024-02-14T05:29:40;1.10;1.00
20400;DHT22;10359;53.596;22.520;2024-02-14T05:32:09;1.30;1.00
20400;DHT22;10359;53.596;22.520;2024-02-14T05:34:40;1.30;1.00
20400;DHT22;10359;53.596;22.520;2024-02-14T05:37:09;1.50;1.00
20400;DHT22;10359;53.596;22.520;2024-02-14T05:39:39;1.50;1.00
20400;DHT22;10359;53.596;22.520;2024-02-14T05:42:08;1.30;1.00
20400;DHT22;10359;53.596;22.520;2024-02-14T05:44:38;1.20;1.00
20400;DHT22;10359;53.596;22.520;2024-02-14T05:47:08;1.50;1.00
20400;DHT22;10359;53.596;22.520;2024-02-14T05:49:41;1.30;1.00
20400;DHT22;10359;53.596;22.520;2024-02-14T05:52:10;1.30;1.00
20400;DHT22;10359;53.596;22.520;2024-02-14T05:54:39;1.30;1.00
20400;DHT22;10359;53.596;22.520;2024-02-14T05:57:09;1.60;1.00
20400;DHT22;10359;53.596;22.520;2024-02-14T05:59:38;1.30;1.00
20400;DHT22;10359;53.596;22.520;2024-02-14T06:02:07;1.40;1.00
20400;DHT22;10359;53.596;22.520;2024-02-14T06:04:37;1.50;1.00
20400;DHT22;10359;53.596;22.520;2024-02-14T06:07:08;1.60;1.00
20400;DHT22;10359;53.596;22.520;2024-02-14T06:09:39;1.40;1.00
20400;DHT22;10359;53.596;22.520;2024-02-14T06:12:08;1.40;1.00
20400;DHT22;10359;53.596;22.520;2024-02-14T06:14:38;1.20;1.00
20400;DHT22;10359;53.596;22.520;2024-02-14T06:17:09;1.20;1.00
20400;DHT22;10359;53.596;22.520;2024-02-14T06:19:39;1.00;1.00
20400;DHT22;10359;53.596;22.520;2024-02-14T06:22:11;0.90;1.00
20400;DHT22;10359;53.596;22.520;2024-02-14T06:24:40;1.00;1.00
20400;DHT22;10359;53.596;22.520;2024-02-14T06:27:10;0.80;1.00
20400;DHT22;10359;53.596;22.520;2024-02-14T06:29:42;0.80;1.00
20400;DHT22;10359;53.596;22.520;2024-02-14T06:32:13;1.00;1.00
20400;DHT22;10359;53.596;22.520;2024-02-14T06:34:42;0.70;1.00
20400;DHT22;10359;53.596;22.520;2024-02-14T06:37:13;0.30;1.00
20400;DHT22;10359;53.596;22.520;2024-02-14T06:39:45;0.90;1.00
20400;DHT22;10359;53.596;22.520;2024-02-14T06:42:16;0.80;1.00
20400;DHT22;10359;53.596;22.520;2024-02-14T06:44:48;0.80;1.00
20400;DHT22;10359;53.596;22.520;2024-02-14T06:47:23;0.80;1.00
20400;DHT22;10359;53.596;22.520;2024-02-14T06:50:00;0.90;1.00
20400;DHT22;10359;53.596;22.520;2024-02-14T06:52:40;0.90;1.00
20400;DHT22;10359;53.596;22.520;2024-02-14T06:55:10;1.00;1.00
20400;DHT22;10359;53.596;22.520;2024-02-14T06:57:39;1.20;1.00
20400;DHT22;10359;53.596;22.520;2024-02-14T07:00:09;1.20;1.00
20400;DHT22;10359;53.596;22.520;2024-02-14T07:02:39;1.30;1.00
20400;DHT22;10359;53.596;22.520;2024-02-14T07:05:08;1.40;1.00
20400;DHT22;10359;53.596;22.520;2024-02-14T07:07:42;1.60;1.00
20400;DHT22;10359;53.596;22.520;2024-02-14T07:10:11;1.60;1.00
20400;DHT22;10359;53.596;22.520;2024-02-14T07:12:43;2.00;1.00
20400;DHT22;10359;53.596;22.520;2024-02-14T07:15:13;1.90;1.00
20400;DHT22;10359;53.596;22.520;2024-02-14T07:17:42;2.10;1.00
20400;DHT22;10359;53.596;22.520;2024-02-14T07:20:12;2.20;1.00
20400;DHT22;10359;53.596;22.520;2024-02-14T07:22:42;2.30;1.00
20400;DHT22;10359;53.596;22.520;2024-02-14T07:25:13;2.40;1.00
20400;DHT22;10359;53.596;22.520;2024-02-14T07:27:42;2.40;1.00
20400;DHT22;10359;53.596;22.520;2024-02-14T07:30:11;2.40;1.00
20400;DHT22;10359;53.596;22.520;2024-02-14T07:32:43;2.50;1.00
20400;DHT22;10359;53.596;22.520;2024-02-14T07:35:12;2.50;1.00
20400;DHT22;10359;53.596;22.520;2024-02-14T07:37:43;2.60;1.00
20400;DHT22;10359;53.596;22.520;2024-02-14T07:40:13;2.70;1.00
20400;DHT22;10359;53.596;22.520;2024-02-14T07:42:45;2.80;1.00
20400;DHT22;10359;53.596;22.520;2024-02-14T07:45:14;2.80;1.00
20400;DHT22;10359;53.596;22.520;2024-02-14T07:47:44;2.80;1.00
20400;DHT22;10359;53.596;22.520;2024-02-14T07:50:14;2.90;1.00
20400;DHT22;10359;53.596;22.520;2024-02-14T07:52:46;3.10;1.00
20400;DHT22;10359;53.596;22.520;2024-02-14T07:55:20;3.20;1.00
20400;DHT22;10359;53.596;22.520;2024-02-14T07:57:50;3.30;1.00
20400;DHT22;10359;53.596;22.520;2024-02-14T08:00:22;3.40;1.00
20400;DHT22;10359;53.596;22.520;2024-02-14T08:02:51;3.40;1.00
20400;DHT22;10359;53.596;22.520;2024-02-14T08:05:21;3.60;1.00
20400;DHT22;10359;53.596;22.520;2024-02-14T08:07:52;3.60;1.00
20400;DHT22;10359;53.596;22.520;2024-02-14T08:10:21;3.70;1.00
20400;DHT22;10359;53.596;22.520;2024-02-14T08:12:50;3.70;1.00
20400;DHT22;10359;53.596;22.520;2024-02-14T08:15:20;3.70;1.00
20400;DHT22;10359;53.596;22.520;2024-02-14T08:17:50;3.80;1.00
20400;DHT22;10359;53.596;22.520;2024-02-14T08:20:25;3.80;1.00
20400;DHT22;10359;53.596;22.520;2024-02-14T08:22:56;3.90;1.00
20400;DHT22;10359;53.596;22.520;2024-02-14T08:25:26;3.90;1.00
20400;DHT22;10359;53.596;22.520;2024-02-14T08:27:56;4.00;1.00
20400;DHT22;10359;53.596;22.520;2024-02-14T08:30:25;4.20;1.00
20400;DHT22;10359;53.596;22.520;2024-02-14T08:32:55;4.30;1.00
20400;DHT22;10359;53.596;22.520;2024-02-14T08:35:24;4.40;1.00
20400;DHT22;10359;53.596;22.520;2024-02-14T08:37:55;4.50;1.00
20400;DHT22;10359;53.596;22.520;2024-02-14T08:40:25;4.70;1.00
20400;DHT22;10359;53.596;22.520;2024-02-14T08:42:55;4.70;1.00
20400;DHT22;10359;53.596;22.520;2024-02-14T08:45:24;4.60;1.00
20400;DHT22;10359;53.596;22.520;2024-02-14T08:47:57;4.60;1.00
20400;DHT22;10359;53.596;22.520;2024-02-14T08:50:27;4.50;1.00
20400;DHT22;10359;53.596;22.520;2024-02-14T08:53:00;4.50;1.00
20400;DHT22;10359;53.596;22.520;2024-02-14T08:55:29;4.40;1.00
20400;DHT22;10359;53.596;22.520;2024-02-14T08:58:01;4.40;1.00
20400;DHT22;10359;53.596;22.520;2024-02-14T09:00:30;4.40;1.00
20400;DHT22;10359;53.596;22.520;2024-02-14T09:03:03;4.50;1.00
20400;DHT22;10359;53.596;22.520;2024-02-14T09:05:33;4.50;1.00
20400;DHT22;10359;53.596;22.520;2024-02-14T09:08:05;4.60;1.00
20400;DHT22;10359;53.596;22.520;2024-02-14T09:10:35;4.80;1.00
20400;DHT22;10359;53.596;22.520;2024-02-14T09:13:04;4.90;1.00
20400;DHT22;10359;53.596;22.520;2024-02-14T09:15:35;4.90;1.00
20400;DHT22;10359;53.596;22.520;2024-02-14T09:18:04;4.90;1.00
20400;DHT22;10359;53.596;22.520;2024-02-14T09:20:34;5.00;1.00
20400;DHT22;10359;53.596;22.520;2024-02-14T09:23:07;4.90;1.00
20400;DHT22;10359;53.596;22.520;2024-02-14T09:25:36;4.90;1.00
20400;DHT22;10359;53.596;22.520;2024-02-14T09:28:05;4.90;1.00
20400;DHT22;10359;53.596;22.520;2024-02-14T09:30:35;5.00;1.00
20400;DHT22;10359;53.596;22.520;2024-02-14T09:33:05;5.10;1.00
20400;DHT22;10359;53.596;22.520;2024-02-14T09:35:35;5.20;1.00
20400;DHT22;10359;53.596;22.520;2024-02-14T09:38:07;5.20;1.00
20400;DHT22;10359;53.596;22.520;2024-02-14T09:40:37;5.30;1.00
20400;DHT22;10359;53.596;22.520;2024-02-14T09:43:11;5.20;1.00
20400;DHT22;10359;53.596;22.520;2024-02-14T09:45:46;5.10;1.00
20400;DHT22;10359;53.596;22.520;2024-02-14T09:48:17;5.20;1.00
20400;DHT22;10359;53.596;22.520;2024-02-14T09:50:48;5.30;1.00
20400;DHT22;10359;53.596;22.520;2024-02-14T09:53:19;5.30;1.00
20400;DHT22;10359;53.596;22.520;2024-02-14T09:55:50;5.30;1.00
20400;DHT22;10359;53.596;22.520;2024-02-14T09:58:22;5.30;1.00
20400;DHT22;10359;53.596;22.520;2024-02-14T10:00:51;5.40;1.00
20400;DHT22;10359;53.596;22.520;2024-02-14T10:03:23;5.70;1.00
20400;DHT22;10359;53.596;22.520;2024-02-14T10:05:53;5.90;1.00
20400;DHT22;10359;53.596;22.520;2024-02-14T10:08:25;6.00;1.00
20400;DHT22;10359;53.596;22.520;2024-02-14T10:10:56;6.10;1.00
20400;DHT22;10359;53.596;22.520;2024-02-14T10:13:27;5.80;1.00
20400;DHT22;10359;53.596;22.520;2024-02-14T10:15:59;6.00;1.00
20400;DHT22;10359;53.596;22.520;2024-02-14T10:18:28;6.00;1.00
20400;DHT22;10359;53.596;22.520;2024-02-14T10:20:57;6.20;1.00
20400;DHT22;10359;53.596;22.520;2024-02-14T10:23:28;6.30;1.00
20400;DHT22;10359;53.596;22.520;2024-02-14T10:25:58;6.30;1.00
20400;DHT22;10359;53.596;22.520;2024-02-14T10:28:27;6.40;1.00
20400;DHT22;10359;53.596;22.520;2024-02-14T10:31:10;6.30;1.00
20400;DHT22;10359;53.596;22.520;2024-02-14T10:33:41;6.30;1.00
20400;DHT22;10359;53.596;22.520;2024-02-14T10:36:12;6.40;1.00
20400;DHT22;10359;53.596;22.520;2024-02-14T10:38:44;6.40;1.00
20400;DHT22;10359;53.596;22.520;2024-02-14T10:41:16;6.40;1.00
20400;DHT22;10359;53.596;22.520;2024-02-14T10:43:45;6.50;1.00
20400;DHT22;10359;53.596;22.520;2024-02-14T10:46:20;6.50;1.00
20400;DHT22;10359;53.596;22.520;2024-02-14T10:48:54;6.60;1.00
20400;DHT22;10359;53.596;22.520;2024-02-14T10:51:31;6.70;1.00
20400;DHT22;10359;53.596;22.520;2024-02-14T10:54:04;6.80;1.00
20400;DHT22;10359;53.596;22.520;2024-02-14T10:56:35;6.90;1.00
20400;DHT22;10359;53.596;22.520;2024-02-14T10:59:08;7.00;1.00
20400;DHT22;10359;53.596;22.520;2024-02-14T11:01:39;7.10;1.00
20400;DHT22;10359;53.596;22.520;2024-02-14T11:04:09;7.00;1.00
20400;DHT22;10359;53.596;22.520;2024-02-14T11:06:45;7.10;1.00
20400;DHT22;10359;53.596;22.520;2024-02-14T11:09:16;7.30;1.00
20400;DHT22;10359;53.596;22.520;2024-02-14T11:11:46;7.40;1.00
20400;DHT22;10359;53.596;22.520;2024-02-14T11:14:16;7.50;1.00
20400;DHT22;10359;53.596;22.520;2024-02-14T11:16:47;7.60;99.90
20400;DHT22;10359;53.596;22.520;2024-02-14T11:19:16;7.70;1.00
20400;DHT22;10359;53.596;22.520;2024-02-14T11:21:48;7.70;99.90
20400;DHT22;10359;53.596;22.520;2024-02-14T11:24:28;7.70;99.90
20400;DHT22;10359;53.596;22.520;2024-02-14T11:27:01;7.80;99.90
20400;DHT22;10359;53.596;22.520;2024-02-14T11:29:31;7.90;99.90
20400;DHT22;10359;53.596;22.520;2024-02-14T11:32:01;8.00;99.90
20400;DHT22;10359;53.596;22.520;2024-02-14T11:34:34;7.80;99.90
20400;DHT22;10359;53.596;22.520;2024-02-14T11:37:05;7.80;99.90
20400;DHT22;10359;53.596;22.520;2024-02-14T11:39:36;7.80;99.90
20400;DHT22;10359;53.596;22.520;2024-02-14T11:42:05;7.90;99.90
20400;DHT22;10359;53.596;22.520;2024-02-14T11:44:36;8.00;99.90
20400;DHT22;10359;53.596;22.520;2024-02-14T11:47:06;7.90;99.90
20400;DHT22;10359;53.596;22.520;2024-02-14T11:49:36;8.10;99.90
20400;DHT22;10359;53.596;22.520;2024-02-14T11:52:10;8.40;99.90
20400;DHT22;10359;53.596;22.520;2024-02-14T11:54:46;8.70;99.90
20400;DHT22;10359;53.596;22.520;2024-02-14T11:57:17;9.00;99.90
20400;DHT22;10359;53.596;22.520;2024-02-14T11:59:49;9.30;99.90
20400;DHT22;10359;53.596;22.520;2024-02-14T12:02:20;9.40;99.90
20400;DHT22;10359;53.596;22.520;2024-02-14T12:04:50;9.30;99.90
20400;DHT22;10359;53.596;22.520;2024-02-14T12:07:21;9.30;99.90
20400;DHT22;10359;53.596;22.520;2024-02-14T12:09:55;9.30;99.90
20400;DHT22;10359;53.596;22.520;2024-02-14T12:12:24;9.40;99.90
20400;DHT22;10359;53.596;22.520;2024-02-14T12:14:54;9.30;99.90
20400;DHT22;10359;53.596;22.520;2024-02-14T12:17:23;9.10;99.90
20400;DHT22;10359;53.596;22.520;2024-02-14T12:19:53;9.00;99.90
20400;DHT22;10359;53.596;22.520;2024-02-14T12:22:23;9.10;99.90
20400;DHT22;10359;53.596;22.520;2024-02-14T12:24:56;9.10;99.90
20400;DHT22;10359;53.596;22.520;2024-02-14T12:27:26;9.20;99.90
20400;DHT22;10359;53.596;22.520;2024-02-14T12:29:56;9.20;99.90
20400;DHT22;10359;53.596;22.520;2024-02-14T12:32:25;9.50;99.90
20400;DHT22;10359;53.596;22.520;2024-02-14T12:34:56;9.50;99.90
20400;DHT22;10359;53.596;22.520;2024-02-14T12:37:25;9.50;99.90
20400;DHT22;10359;53.596;22.520;2024-02-14T12:39:56;9.50;99.90
20400;DHT22;10359;53.596;22.520;2024-02-14T12:42:25;9.30;99.90
20400;DHT22;10359;53.596;22.520;2024-02-14T12:44:55;9.30;99.90
20400;DHT22;10359;53.596;22.520;2024-02-14T12:47:25;9.10;99.90
20400;DHT22;10359;53.596;22.520;2024-02-14T12:50:00;8.90;99.90
20400;DHT22;10359;53.596;22.520;2024-02-14T12:52:29;8.80;99.90
20400;DHT22;10359;53.596;22.520;2024-02-14T12:55:00;8.60;99.90
20400;DHT22;10359;53.596;22.520;2024-02-14T12:57:29;8.40;99.90
20400;DHT22;10359;53.596;22.520;2024-02-14T12:59:59;8.20;99.90
20400;DHT22;10359;53.596;22.520;2024-02-14T13:02:28;8.10;99.90
20400;DHT22;10359;53.596;22.520;2024-02-14T13:04:58;8.10;99.90
20400;DHT22;10359;53.596;22.520;2024-02-14T13:07:27;8.00;99.90
20400;DHT22;10359;53.596;22.520;2024-02-14T13:09:56;8.10;99.90
20400;DHT22;10359;53.596;22.520;2024-02-14T13:12:27;7.90;99.90
20400;DHT22;10359;53.596;22.520;2024-02-14T13:14:57;7.90;99.90
20400;DHT22;10359;53.596;22.520;2024-02-14T13:17:26;7.90;99.90
20400;DHT22;10359;53.596;22.520;2024-02-14T13:19:57;7.90;99.90
20400;DHT22;10359;53.596;22.520;2024-02-14T13:22:27;7.90;99.90
20400;DHT22;10359;53.596;22.520;2024-02-14T13:24:56;7.90;99.90
20400;DHT22;10359;53.596;22.520;2024-02-14T13:27:29;7.90;99.90
20400;DHT22;10359;53.596;22.520;2024-02-14T13:29:58;8.00;99.90
20400;DHT22;10359;53.596;22.520;2024-02-14T13:32:28;8.10;99.90
20400;DHT22;10359;53.596;22.520;2024-02-14T13:34:57;8.30;99.90
20400;DHT22;10359;53.596;22.520;2024-02-14T13:37:27;8.40;99.90
20400;DHT22;10359;53.596;22.520;2024-02-14T13:39:56;8.50;99.90
20400;DHT22;10359;53.596;22.520;2024-02-14T13:42:25;8.70;99.90
20400;DHT22;10359;53.596;22.520;2024-02-14T13:44:56;8.80;99.90
20400;DHT22;10359;53.596;22.520;2024-02-14T13:47:25;8.80;99.90
20400;DHT22;10359;53.596;22.520;2024-02-14T13:49:55;8.60;99.90
20400;DHT22;10359;53.596;22.520;2024-02-14T13:52:25;8.60;99.90
20400;DHT22;10359;53.596;22.520;2024-02-14T13:54:55;8.50;99.90
20400;DHT22;10359;53.596;22.520;2024-02-14T13:57:27;8.60;99.90
20400;DHT22;10359;53.596;22.520;2024-02-14T13:59:57;8.60;99.90
20400;DHT22;10359;53.596;22.520;2024-02-14T14:02:27;8.70;99.90
20400;DHT22;10359;53.596;22.520;2024-02-14T14:04:57;8.60;99.90
20400;DHT22;10359;53.596;22.520;2024-02-14T14:07:26;8.70;99.90
20400;DHT22;10359;53.596;22.520;2024-02-14T14:09:55;8.70;99.90
20400;DHT22;10359;53.596;22.520;2024-02-14T14:12:25;8.70;99.90
20400;DHT22;10359;53.596;22.520;2024-02-14T14:14:54;8.80;99.90
20400;DHT22;10359;53.596;22.520;2024-02-14T14:17:25;8.70;99.90
20400;DHT22;10359;53.596;22.520;2024-02-14T14:19:54;8.80;99.90
20400;DHT22;10359;53.596;22.520;2024-02-14T14:22:23;8.80;99.90
20400;DHT22;10359;53.596;22.520;2024-02-14T14:24:53;8.80;99.90
20400;DHT22;10359;53.596;22.520;2024-02-14T14:27:24;8.90;99.90
20400;DHT22;10359;53.596;22.520;2024-02-14T14:29:53;8.80;99.90
20400;DHT22;10359;53.596;22.520;2024-02-14T14:32:23;8.80;99.90
20400;DHT22;10359;53.596;22.520;2024-02-14T14:34:53;8.80;99.90
20400;DHT22;10359;53.596;22.520;2024-02-14T14:37:22;8.70;99.90
20400;DHT22;10359;53.596;22.520;2024-02-14T14:39:51;8.70;99.90
20400;DHT22;10359;53.596;22.520;2024-02-14T14:42:21;8.70;99.90
20400;DHT22;10359;53.596;22.520;2024-02-14T14:44:50;8.60;99.90
20400;DHT22;10359;53.596;22.520;2024-02-14T14:47:20;8.60;99.90
20400;DHT22;10359;53.596;22.520;2024-02-14T14:49:52;8.60;99.90
20400;DHT22;10359;53.596;22.520;2024-02-14T14:52:22;8.60;99.90
20400;DHT22;10359;53.596;22.520;2024-02-14T14:54:52;8.50;99.90
20400;DHT22;10359;53.596;22.520;2024-02-14T14:57:25;8.50;99.90
20400;DHT22;10359;53.596;22.520;2024-02-14T14:59:55;8.40;99.90
20400;DHT22;10359;53.596;22.520;2024-02-14T15:02:24;8.30;99.90
20400;DHT22;10359;53.596;22.520;2024-02-14T15:04:55;8.20;99.90
20400;DHT22;10359;53.596;22.520;2024-02-14T15:07:25;8.10;99.90
20400;DHT22;10359;53.596;22.520;2024-02-14T15:09:54;8.00;99.90
20400;DHT22;10359;53.596;22.520;2024-02-14T15:12:24;8.00;99.90
20400;DHT22;10359;53.596;22.520;2024-02-14T15:14:54;7.90;99.90
20400;DHT22;10359;53.596;22.520;2024-02-14T15:17:23;7.90;99.90
20400;DHT22;10359;53.596;22.520;2024-02-14T15:19:52;7.70;99.90
20400;DHT22;10359;53.596;22.520;2024-02-14T15:22:24;7.50;99.90
20400;DHT22;10359;53.596;22.520;2024-02-14T15:24:59;7.40;99.90
20400;DHT22;10359;53.596;22.520;2024-02-14T15:27:28;7.20;99.90
20400;DHT22;10359;53.596;22.520;2024-02-14T15:29:58;7.00;99.90
20400;DHT22;10359;53.596;22.520;2024-02-14T15:32:45;6.90;99.90
20400;DHT22;10359;53.596;22.520;2024-02-14T15:35:32;6.80;99.90
20400;DHT22;10359;53.596;22.520;2024-02-14T15:38:03;6.70;1.00
20400;DHT22;10359;53.596;22.520;2024-02-14T15:40:33;6.40;1.00
20400;DHT22;10359;53.596;22.520;2024-02-14T15:43:03;6.30;1.00
20400;DHT22;10359;53.596;22.520;2024-02-14T15:45:32;6.10;1.00
20400;DHT22;10359;53.596;22.520;2024-02-14T15:48:02;5.90;1.00
20400;DHT22;10359;53.596;22.520;2024-02-14T15:50:31;5.70;1.00
20400;DHT22;10359;53.596;22.520;2024-02-14T15:53:02;5.60;1.00
20400;DHT22;10359;53.596;22.520;2024-02-14T15:55:33;5.40;1.00
20400;DHT22;10359;53.596;22.520;2024-02-14T15:58:03;5.30;1.00
20400;DHT22;10359;53.596;22.520;2024-02-14T16:00:32;5.10;1.00
20400;DHT22;10359;53.596;22.520;2024-02-14T16:03:02;5.00;1.00